Details From HBBA - Bujumbura Intl
To FEFF - Bangui M Poko
Flight Number -
Tags Generated
Created
Modified
Stats Distance 797 nm / 1,476 km
Max Altitude 0 ft / 0 m
Waypoints 3
Social Downloads 2
Likes 0
Share VATSIM

Download

Looking for another format? Having issues loading an existing format? Contact us
Advertisement - Login to hide

Notes

Generated

Route

HBBA BP FEFF

ID Type Via Altitude Latitude Longitude Leg Dist Tot Dist Heading (true) Name
O HBBA APT - 0 ft / 0 m -3.30799˚ 29.31601˚ - 0 nm - -
BP NDB - 0 ft / 0 m 4.37869˚ 18.52472˚ 795 nm 795 nm 305° / 305° BANGUI M POKO NDB
O FEFF APT - 0 ft / 0 m 4.40983˚ 18.51585˚ 1 nm 797 nm 344° / 344° -

Altitude Profile

Advertisement - Login to hide

Weather


0- 5 10 15 20 25 30 35+ Temperature / ° C

Clouds and Precipitation
Forecast for 2017-12-16 00:00 UTC. Updated an hour ago

Ground ~20,000 ft ~40,000 ft Winds

HBBA

Details ICAO HBBA (BJM)
Name BUJUMBURA INTL
Region Burundi
Timezone Africa/Bujumbura (UTC+2.0)
Stats Elevation 2,582 ft / 787 m (AMSL)
Location -3.324018° 29.318521°
Runways 1
Magnetic Variation 0.887° E

METAR

Not found

TAF

TAF HBBA 151500Z 1518/1624 00000KT CAVOK BECMG1602/1604 36002KT 9999 FEW025 BKN100 BECMG1607/1609 18010G20KT 9999 FEW025 FEW028CB BKN100 PROB30 TEMPO1612/1618 0815G25KT 5000 TSRA OR SHRA SCT025CB BKN100 BECMG1616/1618 00000KT CAVOK

Decode

Departure Runways

ID Width Length Bearing (true) Bearing (mag) Surface Threshold Offset Overrun Length
17 148 ft / 45 m 11,841 ft / 3,609 m 171.10° 170.21° Asphalt 0 ft / 0 m 60 ft / 18 m
35 148 ft / 45 m 11,841 ft / 3,609 m 351.10° 350.21° Asphalt 0 ft / 0 m 60 ft / 18 m

FEFF

Details ICAO FEFF (BGF)
Name BANGUI M POKO
Region Central African Republic
Timezone Africa/Bangui (UTC+1.0)
Stats Elevation 1,208 ft / 368 m (AMSL)
Location 4.398474° 18.518784°
Runways 1
Magnetic Variation 1.019° E

METAR

FEFF 152100Z 00000KT 6000 NSC 26/24 Q1010 NOSIG

Decode

TAF

TAF TAF FEFF 151700Z 1518/1624 VRB02KT 6000 NSC TEMPO 1601/1604 2000 BR BKN003 PROB30 TEMPO 1603/1606 0800 FG FM161000 32010KT 8000 BKN013 TEMPO 1615/1618 3000 HZ

Decode

Destination Runways

ID Width Length Bearing (true) Bearing (mag) Surface Threshold Offset Overrun Length
17 148 ft / 45 m 8,559 ft / 2,609 m 165.55° 164.53° Asphalt 0 ft / 0 m 131 ft / 40 m
35 148 ft / 45 m 8,559 ft / 2,609 m 345.55° 344.53° Asphalt 0 ft / 0 m 131 ft / 40 m

Approach Navaids

Runway Type Ident Frequency Range Bearing (true) Bearing (mag) Slope Elevation
35 Localiser BGI 110.30 MHz 18 nm / 33 km 347.07° 346.05° - 1,211 ft / 369 m (AMSL)
35 Glidescope BGI 110.30 MHz 10 nm / 19 km 345.55° 344.53° 3.00° 1,201 ft / 366 m (AMSL)
35 DME BGI 110.30 MHz 18 nm / 33 km - - - 1,201 ft / 366 m (AMSL)